DCMPY EDJA-EDXW
Flight info
| Callsign | DCMPY |
|---|---|
| Flight time | 1h 15m |
| Altitude | 41000 |
| Route | LUPOL5B LUPOL Z79 SUDEN Z1 NOTGA N624 NIKUT DCT OSBIT DCT OBISI P605 NORTA Z595 NIE N850 ELSOB Y348 OMWEG M105 EXNEL DCT OLDIP |
| Aircraft | LJ35/M-SGHRWXY/SB1 |
Departure
| Time | 2026-04-27 12:34 |
|---|---|
| Airport | Memmingen Allgau Airport (EDJA) |
Arrival
| Time | 2026-04-27 13:49 |
|---|---|
| Airport | Westerland Sylt Airport (EDXW) |
| Time | Latitude | Longitude | Altitude | Speed | Heading |
|---|---|---|---|---|---|
| 2026-04-27 12:07 | 47.98763 | 10.22887 | 2071 ft | 0 kts | 49° |
| 2026-04-27 12:28 | 47.98768 | 10.22896 | 2071 ft | 0 kts | 52° |
| 2026-04-27 12:29 | 47.98744 | 10.22934 | 2072 ft | 9 kts | 184° |
| 2026-04-27 12:29 | 47.98708 | 10.22842 | 2071 ft | 13 kts | 260° |
| 2026-04-27 12:29 | 47.98688 | 10.22726 | 2072 ft | 9 kts | 228° |
| 2026-04-27 12:29 | 47.98614 | 10.22714 | 2075 ft | 13 kts | 180° |
| 2026-04-27 12:30 | 47.98568 | 10.22714 | 2076 ft | 0 kts | 179° |
| 2026-04-27 12:31 | 47.98559 | 10.22714 | 2076 ft | 4 kts | 182° |
| 2026-04-27 12:31 | 47.98514 | 10.22698 | 2077 ft | 9 kts | 205° |
| 2026-04-27 12:32 | 47.98464 | 10.22616 | 2079 ft | 13 kts | 239° |
| 2026-04-27 12:32 | 47.98413 | 10.22533 | 2081 ft | 11 kts | 175° |
| 2026-04-27 12:32 | 47.98350 | 10.22592 | 2082 ft | 10 kts | 113° |
| 2026-04-27 12:32 | 47.98352 | 10.22622 | 2082 ft | 0 kts | 58° |
| 2026-04-27 12:33 | 47.98367 | 10.22656 | 2081 ft | 34 kts | 59° |
| 2026-04-27 12:33 | 47.98744 | 10.23617 | 2112 ft | 172 kts | 58° |
| 2026-04-27 12:34 | 47.99447 | 10.25498 | 3017 ft | 246 kts | 59° |
| 2026-04-27 12:34 | 48.00333 | 10.27680 | 4017 ft | 229 kts | 58° |
| 2026-04-27 12:34 | 48.01181 | 10.29774 | 4992 ft | 255 kts | 59° |
| 2026-04-27 12:34 | 48.02125 | 10.32172 | 5951 ft | 274 kts | 59° |
| 2026-04-27 12:35 | 48.03091 | 10.34588 | 6895 ft | 267 kts | 58° |
| 2026-04-27 12:35 | 48.04250 | 10.36695 | 7773 ft | 259 kts | 36° |
| 2026-04-27 12:35 | 48.05845 | 10.37707 | 8656 ft | 249 kts | 6° |
| 2026-04-27 12:35 | 48.07536 | 10.37504 | 9570 ft | 245 kts | 341° |
| 2026-04-27 12:36 | 48.09023 | 10.36194 | 10468 ft | 255 kts | 315° |
| 2026-04-27 12:36 | 48.10082 | 10.33813 | 11355 ft | 302 kts | 295° |
| 2026-04-27 12:36 | 48.10910 | 10.30730 | 12818 ft | 322 kts | 290° |
| 2026-04-27 12:36 | 48.11688 | 10.27576 | 15004 ft | 327 kts | 291° |
| 2026-04-27 12:37 | 48.12580 | 10.24390 | 16881 ft | 335 kts | 294° |
| 2026-04-27 12:37 | 48.13517 | 10.21186 | 18710 ft | 344 kts | 293° |
| 2026-04-27 12:37 | 48.14450 | 10.17840 | 20293 ft | 351 kts | 292° |
| 2026-04-27 12:37 | 48.15375 | 10.14417 | 21866 ft | 358 kts | 292° |
| 2026-04-27 12:38 | 48.16335 | 10.10920 | 23392 ft | 366 kts | 292° |
| 2026-04-27 12:38 | 48.17325 | 10.07360 | 24673 ft | 373 kts | 292° |
| 2026-04-27 12:38 | 48.18330 | 10.03730 | 25853 ft | 380 kts | 292° |
| 2026-04-27 12:38 | 48.19329 | 10.00086 | 26953 ft | 386 kts | 292° |
| 2026-04-27 12:39 | 48.20359 | 9.96318 | 28012 ft | 393 kts | 292° |
| 2026-04-27 12:39 | 48.21411 | 9.92493 | 29003 ft | 399 kts | 292° |
| 2026-04-27 12:39 | 48.22720 | 9.88790 | 29928 ft | 405 kts | 301° |
| 2026-04-27 12:39 | 48.24239 | 9.85212 | 30773 ft | 409 kts | 301° |
| 2026-04-27 12:40 | 48.25759 | 9.81569 | 31507 ft | 413 kts | 301° |
| 2026-04-27 12:40 | 48.27253 | 9.77920 | 32192 ft | 417 kts | 300° |
| 2026-04-27 12:40 | 48.28783 | 9.74189 | 32777 ft | 420 kts | 301° |
| 2026-04-27 12:40 | 48.30337 | 9.70442 | 33324 ft | 424 kts | 301° |
| 2026-04-27 12:41 | 48.31900 | 9.66668 | 33768 ft | 426 kts | 301° |
| 2026-04-27 12:41 | 48.33462 | 9.62869 | 34088 ft | 429 kts | 300° |
| 2026-04-27 12:41 | 48.35031 | 9.59034 | 34282 ft | 431 kts | 301° |
| 2026-04-27 12:42 | 48.38858 | 9.52076 | 34433 ft | 435 kts | 316° |
| 2026-04-27 12:42 | 48.41291 | 9.49497 | 34914 ft | 432 kts | 325° |
| 2026-04-27 12:42 | 48.44023 | 9.47587 | 35400 ft | 434 kts | 336° |
| 2026-04-27 12:42 | 48.46966 | 9.46453 | 35910 ft | 437 kts | 346° |
| 2026-04-27 12:43 | 48.50013 | 9.46125 | 36429 ft | 440 kts | 355° |
| 2026-04-27 12:43 | 48.53079 | 9.46204 | 37003 ft | 438 kts | 356° |
| 2026-04-27 12:43 | 48.56121 | 9.46243 | 37593 ft | 435 kts | 354° |
| 2026-04-27 12:43 | 48.59109 | 9.46162 | 38195 ft | 433 kts | 353° |
| 2026-04-27 12:44 | 48.62114 | 9.46067 | 38810 ft | 431 kts | 354° |
| 2026-04-27 12:44 | 48.65116 | 9.46044 | 39310 ft | 429 kts | 355° |
| 2026-04-27 12:44 | 48.68101 | 9.46056 | 39816 ft | 427 kts | 355° |
| 2026-04-27 12:44 | 48.71082 | 9.46027 | 40157 ft | 430 kts | 354° |
| 2026-04-27 12:45 | 48.74082 | 9.46231 | 40151 ft | 444 kts | 2° |
| 2026-04-27 12:45 | 48.80291 | 9.47525 | 40169 ft | 452 kts | 3° |
| 2026-04-27 12:46 | 48.86526 | 9.48762 | 40171 ft | 451 kts | 2° |
| 2026-04-27 12:46 | 48.92687 | 9.50035 | 40193 ft | 447 kts | 3° |
| 2026-04-27 12:47 | 48.98800 | 9.51947 | 40189 ft | 451 kts | 11° |
| 2026-04-27 12:47 | 49.04837 | 9.54494 | 40195 ft | 450 kts | 10° |
| 2026-04-27 12:48 | 49.10899 | 9.57019 | 40199 ft | 450 kts | 11° |
| 2026-04-27 12:48 | 49.16902 | 9.59564 | 40214 ft | 450 kts | 10° |
| 2026-04-27 12:49 | 49.22949 | 9.62103 | 40209 ft | 451 kts | 10° |
| 2026-04-27 12:49 | 49.29001 | 9.64669 | 40211 ft | 451 kts | 10° |
| 2026-04-27 12:50 | 49.35051 | 9.67313 | 40217 ft | 453 kts | 13° |
| 2026-04-27 12:50 | 49.40976 | 9.70502 | 40217 ft | 454 kts | 14° |
| 2026-04-27 12:51 | 49.46949 | 9.73674 | 40216 ft | 453 kts | 14° |
| 2026-04-27 12:51 | 49.52921 | 9.76859 | 40217 ft | 454 kts | 14° |
| 2026-04-27 12:52 | 49.58865 | 9.79978 | 40219 ft | 451 kts | 10° |
| 2026-04-27 12:52 | 49.65000 | 9.80845 | 40220 ft | 439 kts | 353° |
| 2026-04-27 12:53 | 49.74166 | 9.80275 | 40227 ft | 439 kts | 353° |
| 2026-04-27 12:53 | 49.80246 | 9.79911 | 40232 ft | 439 kts | 353° |
| 2026-04-27 12:54 | 49.86363 | 9.79535 | 40231 ft | 439 kts | 353° |
| 2026-04-27 12:54 | 49.92477 | 9.79174 | 40231 ft | 439 kts | 353° |
| 2026-04-27 12:55 | 49.98547 | 9.78800 | 40230 ft | 439 kts | 353° |
| 2026-04-27 12:55 | 50.04653 | 9.78434 | 40231 ft | 439 kts | 353° |
| 2026-04-27 12:56 | 50.10746 | 9.77897 | 40237 ft | 438 kts | 351° |
| 2026-04-27 12:56 | 50.16840 | 9.77319 | 40233 ft | 438 kts | 352° |
| 2026-04-27 12:57 | 50.22896 | 9.76695 | 40234 ft | 438 kts | 351° |
| 2026-04-27 12:57 | 50.28980 | 9.76086 | 40236 ft | 438 kts | 352° |
| 2026-04-27 12:58 | 50.35061 | 9.75480 | 40235 ft | 437 kts | 351° |
| 2026-04-27 12:58 | 50.41143 | 9.74864 | 40236 ft | 437 kts | 352° |
| 2026-04-27 12:59 | 50.47194 | 9.74256 | 40253 ft | 438 kts | 352° |
| 2026-04-27 12:59 | 50.53297 | 9.73628 | 40239 ft | 439 kts | 352° |
| 2026-04-27 13:00 | 50.59366 | 9.73021 | 40242 ft | 439 kts | 352° |
| 2026-04-27 13:00 | 50.65478 | 9.72391 | 40243 ft | 439 kts | 352° |
| 2026-04-27 13:01 | 50.71539 | 9.71758 | 40244 ft | 439 kts | 352° |
| 2026-04-27 13:01 | 50.77637 | 9.71130 | 40247 ft | 439 kts | 352° |
| 2026-04-27 13:02 | 50.83740 | 9.70490 | 40244 ft | 439 kts | 352° |
| 2026-04-27 13:02 | 50.89858 | 9.70027 | 40235 ft | 441 kts | 354° |
| 2026-04-27 13:03 | 50.95967 | 9.69869 | 40250 ft | 441 kts | 354° |
| 2026-04-27 13:03 | 51.02100 | 9.69655 | 40249 ft | 440 kts | 354° |
| 2026-04-27 13:04 | 51.07207 | 9.69509 | 40250 ft | 440 kts | 354° |
| 2026-04-27 13:04 | 51.13344 | 9.69307 | 40253 ft | 440 kts | 354° |
| 2026-04-27 13:05 | 51.19444 | 9.69129 | 40253 ft | 441 kts | 354° |
| 2026-04-27 13:05 | 51.25613 | 9.69941 | 40241 ft | 445 kts | 1° |
| 2026-04-27 13:06 | 51.31770 | 9.70913 | 40241 ft | 444 kts | 0° |
| 2026-04-27 13:06 | 51.37928 | 9.71921 | 40236 ft | 445 kts | 1° |
| 2026-04-27 13:07 | 51.44046 | 9.72919 | 40249 ft | 445 kts | 1° |
| 2026-04-27 13:07 | 51.50216 | 9.73953 | 40248 ft | 445 kts | 2° |
| 2026-04-27 13:08 | 51.56383 | 9.75194 | 40246 ft | 445 kts | 2° |
| 2026-04-27 13:08 | 51.62515 | 9.76318 | 40251 ft | 445 kts | 2° |
| 2026-04-27 13:09 | 51.68670 | 9.77501 | 40256 ft | 445 kts | 2° |
| 2026-04-27 13:09 | 51.74826 | 9.78669 | 40258 ft | 445 kts | 2° |
| 2026-04-27 13:10 | 51.80935 | 9.79832 | 40265 ft | 445 kts | 2° |
| 2026-04-27 13:10 | 51.87064 | 9.80170 | 40254 ft | 437 kts | 348° |
| 2026-04-27 13:11 | 51.92856 | 9.77553 | 40258 ft | 431 kts | 336° |
| 2026-04-27 13:11 | 51.98534 | 9.74304 | 40259 ft | 432 kts | 337° |
| 2026-04-27 13:12 | 52.04169 | 9.71095 | 40264 ft | 432 kts | 336° |
| 2026-04-27 13:12 | 52.09842 | 9.67841 | 40271 ft | 432 kts | 336° |
| 2026-04-27 13:13 | 52.15523 | 9.64569 | 40275 ft | 433 kts | 337° |
| 2026-04-27 13:13 | 52.21202 | 9.61320 | 40275 ft | 432 kts | 336° |
| 2026-04-27 13:14 | 52.26836 | 9.58048 | 40274 ft | 432 kts | 337° |
| 2026-04-27 13:14 | 52.32511 | 9.54770 | 40273 ft | 432 kts | 336° |
| 2026-04-27 13:15 | 52.38189 | 9.51465 | 40267 ft | 432 kts | 336° |
| 2026-04-27 13:15 | 52.43863 | 9.48165 | 40271 ft | 432 kts | 336° |
| 2026-04-27 13:16 | 52.49542 | 9.44857 | 40274 ft | 432 kts | 336° |
| 2026-04-27 13:16 | 52.55180 | 9.41546 | 40274 ft | 433 kts | 336° |
| 2026-04-27 13:17 | 52.60912 | 9.38417 | 40249 ft | 438 kts | 344° |
| 2026-04-27 13:17 | 52.67051 | 9.38102 | 40263 ft | 447 kts | 3° |
| 2026-04-27 13:18 | 52.73195 | 9.39477 | 40275 ft | 447 kts | 3° |
| 2026-04-27 13:18 | 52.79374 | 9.40737 | 40283 ft | 446 kts | 2° |
| 2026-04-27 13:19 | 52.85540 | 9.42079 | 40283 ft | 447 kts | 3° |
| 2026-04-27 13:19 | 52.91679 | 9.43384 | 40294 ft | 447 kts | 2° |
| 2026-04-27 13:20 | 52.97867 | 9.44703 | 40292 ft | 447 kts | 3° |
| 2026-04-27 13:20 | 53.03920 | 9.46012 | 40291 ft | 426 kts | 2° |
| 2026-04-27 13:21 | 53.06855 | 9.46631 | 39948 ft | 434 kts | 2° |
| 2026-04-27 13:21 | 53.09891 | 9.47252 | 39542 ft | 440 kts | 2° |
| 2026-04-27 13:21 | 53.12933 | 9.47909 | 39098 ft | 437 kts | 3° |
| 2026-04-27 13:21 | 53.15939 | 9.48588 | 38363 ft | 434 kts | 2° |
| 2026-04-27 13:22 | 53.18914 | 9.49228 | 37756 ft | 428 kts | 2° |
| 2026-04-27 13:22 | 53.21827 | 9.49832 | 37165 ft | 424 kts | 1° |
| 2026-04-27 13:22 | 53.24750 | 9.50454 | 36606 ft | 420 kts | 2° |
| 2026-04-27 13:22 | 53.27629 | 9.51082 | 36039 ft | 415 kts | 1° |
| 2026-04-27 13:23 | 53.30485 | 9.51699 | 35495 ft | 411 kts | 1° |
| 2026-04-27 13:23 | 53.33299 | 9.52301 | 34977 ft | 407 kts | 1° |
| 2026-04-27 13:23 | 53.36086 | 9.52901 | 34487 ft | 404 kts | 1° |
| 2026-04-27 13:23 | 53.38873 | 9.53504 | 33951 ft | 401 kts | 1° |
| 2026-04-27 13:24 | 53.41641 | 9.54102 | 33414 ft | 398 kts | 1° |
| 2026-04-27 13:24 | 53.44372 | 9.54694 | 32916 ft | 394 kts | 1° |
| 2026-04-27 13:24 | 53.47081 | 9.55282 | 32242 ft | 390 kts | 1° |
| 2026-04-27 13:24 | 53.49736 | 9.55857 | 31582 ft | 387 kts | 1° |
| 2026-04-27 13:25 | 53.52393 | 9.56429 | 30967 ft | 383 kts | 0° |
| 2026-04-27 13:25 | 53.55030 | 9.56772 | 30358 ft | 377 kts | 357° |
| 2026-04-27 13:25 | 53.57643 | 9.57054 | 29700 ft | 374 kts | 358° |
| 2026-04-27 13:25 | 53.60231 | 9.57354 | 29087 ft | 369 kts | 358° |
| 2026-04-27 13:26 | 53.62785 | 9.57654 | 28533 ft | 365 kts | 358° |
| 2026-04-27 13:26 | 53.65277 | 9.57853 | 27965 ft | 358 kts | 353° |
| 2026-04-27 13:26 | 53.67715 | 9.57378 | 27394 ft | 350 kts | 346° |
| 2026-04-27 13:26 | 53.70127 | 9.56796 | 26840 ft | 348 kts | 347° |
| 2026-04-27 13:27 | 53.72518 | 9.56255 | 26306 ft | 345 kts | 347° |
| 2026-04-27 13:27 | 53.74892 | 9.55715 | 25798 ft | 342 kts | 347° |
| 2026-04-27 13:27 | 53.77215 | 9.55169 | 25302 ft | 339 kts | 347° |
| 2026-04-27 13:27 | 53.79548 | 9.54619 | 24809 ft | 337 kts | 348° |
| 2026-04-27 13:28 | 53.81863 | 9.54079 | 24347 ft | 334 kts | 348° |
| 2026-04-27 13:28 | 53.84162 | 9.53538 | 23890 ft | 332 kts | 348° |
| 2026-04-27 13:28 | 53.86448 | 9.53009 | 23379 ft | 329 kts | 348° |
| 2026-04-27 13:28 | 53.88712 | 9.52486 | 22924 ft | 326 kts | 349° |
| 2026-04-27 13:29 | 53.90952 | 9.51960 | 22429 ft | 324 kts | 349° |
| 2026-04-27 13:29 | 53.93175 | 9.51439 | 21960 ft | 321 kts | 349° |
| 2026-04-27 13:29 | 53.95355 | 9.50929 | 21518 ft | 319 kts | 349° |
| 2026-04-27 13:29 | 53.97546 | 9.50413 | 21084 ft | 317 kts | 349° |
| 2026-04-27 13:30 | 53.99726 | 9.49935 | 20653 ft | 316 kts | 352° |
| 2026-04-27 13:30 | 54.01930 | 9.50164 | 20235 ft | 318 kts | 7° |
| 2026-04-27 13:30 | 54.04103 | 9.50887 | 19871 ft | 316 kts | 7° |
| 2026-04-27 13:30 | 54.06261 | 9.51591 | 19503 ft | 315 kts | 7° |
| 2026-04-27 13:31 | 54.08407 | 9.52269 | 19149 ft | 313 kts | 7° |
| 2026-04-27 13:31 | 54.10543 | 9.52952 | 18808 ft | 311 kts | 7° |
| 2026-04-27 13:31 | 54.12667 | 9.53638 | 18468 ft | 309 kts | 8° |
| 2026-04-27 13:31 | 54.14774 | 9.54317 | 18106 ft | 308 kts | 7° |
| 2026-04-27 13:32 | 54.16849 | 9.54976 | 17733 ft | 306 kts | 7° |
| 2026-04-27 13:32 | 54.18936 | 9.55651 | 17365 ft | 304 kts | 8° |
| 2026-04-27 13:32 | 54.21013 | 9.56330 | 17004 ft | 303 kts | 8° |
| 2026-04-27 13:32 | 54.23078 | 9.57008 | 16647 ft | 301 kts | 8° |
| 2026-04-27 13:33 | 54.25133 | 9.57682 | 16314 ft | 299 kts | 8° |
| 2026-04-27 13:33 | 54.27173 | 9.58345 | 15991 ft | 298 kts | 8° |
| 2026-04-27 13:33 | 54.29208 | 9.59008 | 15669 ft | 296 kts | 8° |
| 2026-04-27 13:33 | 54.31271 | 9.59667 | 15469 ft | 298 kts | 7° |
| 2026-04-27 13:34 | 54.33305 | 9.59805 | 14940 ft | 296 kts | 352° |
| 2026-04-27 13:34 | 54.35299 | 9.59072 | 14501 ft | 291 kts | 339° |
| 2026-04-27 13:34 | 54.37106 | 9.57572 | 14079 ft | 287 kts | 326° |
| 2026-04-27 13:34 | 54.38629 | 9.55424 | 13700 ft | 281 kts | 314° |
| 2026-04-27 13:35 | 54.39808 | 9.52780 | 13121 ft | 278 kts | 301° |
| 2026-04-27 13:35 | 54.40652 | 9.49793 | 12530 ft | 278 kts | 294° |
| 2026-04-27 13:35 | 54.41440 | 9.46811 | 11978 ft | 277 kts | 295° |
| 2026-04-27 13:35 | 54.42253 | 9.43812 | 11458 ft | 276 kts | 295° |
| 2026-04-27 13:36 | 54.43063 | 9.40827 | 10977 ft | 275 kts | 295° |
| 2026-04-27 13:36 | 54.43864 | 9.37849 | 10545 ft | 273 kts | 295° |
| 2026-04-27 13:36 | 54.44655 | 9.34895 | 10075 ft | 271 kts | 296° |
| 2026-04-27 13:36 | 54.45437 | 9.31946 | 9524 ft | 271 kts | 295° |
| 2026-04-27 13:37 | 54.46218 | 9.29046 | 9065 ft | 268 kts | 296° |
| 2026-04-27 13:37 | 54.47008 | 9.26160 | 8618 ft | 266 kts | 295° |
| 2026-04-27 13:37 | 54.47778 | 9.23263 | 8150 ft | 266 kts | 295° |
| 2026-04-27 13:37 | 54.48545 | 9.20378 | 7731 ft | 264 kts | 296° |
| 2026-04-27 13:38 | 54.49307 | 9.17525 | 7348 ft | 261 kts | 296° |
| 2026-04-27 13:38 | 54.50065 | 9.14688 | 6959 ft | 260 kts | 296° |
| 2026-04-27 13:38 | 54.50817 | 9.11854 | 6578 ft | 260 kts | 295° |
| 2026-04-27 13:38 | 54.51569 | 9.09026 | 6205 ft | 259 kts | 296° |
| 2026-04-27 13:39 | 54.52308 | 9.06254 | 5833 ft | 257 kts | 296° |
| 2026-04-27 13:39 | 54.53045 | 9.03466 | 5462 ft | 255 kts | 295° |
| 2026-04-27 13:39 | 54.53780 | 9.00687 | 5078 ft | 254 kts | 296° |
| 2026-04-27 13:39 | 54.54510 | 8.97925 | 4695 ft | 253 kts | 296° |
| 2026-04-27 13:40 | 54.55243 | 8.95154 | 4270 ft | 255 kts | 296° |
| 2026-04-27 13:40 | 54.55979 | 8.92367 | 3857 ft | 257 kts | 296° |
| 2026-04-27 13:40 | 54.56720 | 8.89555 | 3473 ft | 258 kts | 296° |
| 2026-04-27 13:40 | 54.57451 | 8.86770 | 3325 ft | 249 kts | 296° |
| 2026-04-27 13:41 | 54.58151 | 8.84106 | 3323 ft | 238 kts | 296° |
| 2026-04-27 13:41 | 54.58825 | 8.81543 | 3314 ft | 230 kts | 296° |
| 2026-04-27 13:41 | 54.59468 | 8.79094 | 3314 ft | 224 kts | 296° |
| 2026-04-27 13:41 | 54.60100 | 8.76680 | 3313 ft | 219 kts | 296° |
| 2026-04-27 13:42 | 54.60721 | 8.74305 | 3314 ft | 215 kts | 296° |
| 2026-04-27 13:42 | 54.61334 | 8.71975 | 3315 ft | 212 kts | 297° |
| 2026-04-27 13:42 | 54.62177 | 8.69924 | 3314 ft | 208 kts | 319° |
| 2026-04-27 13:42 | 54.63330 | 8.68441 | 3320 ft | 208 kts | 328° |
| 2026-04-27 13:43 | 54.64533 | 8.67007 | 3325 ft | 212 kts | 328° |
| 2026-04-27 13:43 | 54.65754 | 8.65586 | 3323 ft | 215 kts | 328° |
| 2026-04-27 13:43 | 54.66984 | 8.64091 | 3327 ft | 216 kts | 326° |
| 2026-04-27 13:43 | 54.68192 | 8.62543 | 3329 ft | 216 kts | 326° |
| 2026-04-27 13:44 | 54.69420 | 8.61040 | 3331 ft | 216 kts | 327° |
| 2026-04-27 13:44 | 54.70654 | 8.59545 | 3331 ft | 217 kts | 327° |
| 2026-04-27 13:44 | 54.71871 | 8.58029 | 3276 ft | 220 kts | 327° |
| 2026-04-27 13:44 | 54.73131 | 8.56503 | 3144 ft | 219 kts | 327° |
| 2026-04-27 13:45 | 54.74360 | 8.54972 | 3005 ft | 214 kts | 327° |
| 2026-04-27 13:45 | 54.75574 | 8.53497 | 2986 ft | 213 kts | 327° |
| 2026-04-27 13:45 | 54.76766 | 8.52017 | 2985 ft | 213 kts | 327° |
| 2026-04-27 13:45 | 54.77982 | 8.50529 | 2983 ft | 214 kts | 327° |
| 2026-04-27 13:46 | 54.79216 | 8.49009 | 2818 ft | 222 kts | 326° |
| 2026-04-27 13:46 | 54.80495 | 8.47424 | 2514 ft | 229 kts | 327° |
| 2026-04-27 13:46 | 54.81799 | 8.45829 | 2196 ft | 232 kts | 326° |
| 2026-04-27 13:46 | 54.83046 | 8.44267 | 1880 ft | 209 kts | 327° |
| 2026-04-27 13:47 | 54.84180 | 8.42892 | 1596 ft | 191 kts | 326° |
| 2026-04-27 13:47 | 54.85196 | 8.41614 | 1344 ft | 164 kts | 326° |
| 2026-04-27 13:47 | 54.86006 | 8.40627 | 1149 ft | 139 kts | 328° |
| 2026-04-27 13:47 | 54.86830 | 8.39605 | 945 ft | 141 kts | 325° |
| 2026-04-27 13:48 | 54.87604 | 8.38646 | 751 ft | 135 kts | 326° |
| 2026-04-27 13:48 | 54.88344 | 8.37735 | 576 ft | 125 kts | 325° |
| 2026-04-27 13:48 | 54.89030 | 8.36886 | 401 ft | 118 kts | 325° |
| 2026-04-27 13:48 | 54.89714 | 8.36036 | 236 ft | 127 kts | 325° |
| 2026-04-27 13:49 | 54.90437 | 8.35142 | 62 ft | 124 kts | 326° |
| 2026-04-27 13:49 | 54.91024 | 8.34424 | 39 ft | 79 kts | 326° |
| 2026-04-27 13:49 | 54.91242 | 8.34147 | 39 ft | 22 kts | 324° |
| 2026-04-27 13:49 | 54.91298 | 8.33973 | 35 ft | 18 kts | 237° |
| 2026-04-27 13:50 | 54.91214 | 8.33723 | 31 ft | 29 kts | 239° |
| 2026-04-27 13:50 | 54.91098 | 8.33379 | 31 ft | 39 kts | 239° |
| 2026-04-27 13:50 | 54.91006 | 8.33042 | 34 ft | 19 kts | 281° |
| 2026-04-27 13:50 | 54.91059 | 8.32902 | 35 ft | 15 kts | 316° |
| 2026-04-27 13:51 | 54.91140 | 8.32748 | 34 ft | 14 kts | 311° |
| 2026-04-27 13:51 | 54.91220 | 8.32606 | 29 ft | 14 kts | 334° |
| 2026-04-27 13:51 | 54.91270 | 8.32510 | 27 ft | 5 kts | 244° |
| 2026-04-27 13:51 | 54.91269 | 8.32507 | 27 ft | 0 kts | 244° |